sensor_id;sensor_type;location;lat;lon;timestamp;temperature;humidity
85532;SHT35;75970;52.122;5.406;2024-02-15T00:00:41;19.00;56.90
85532;SHT35;75970;52.122;5.406;2024-02-15T00:03:14;18.99;56.92
85532;SHT35;75970;52.122;5.406;2024-02-15T00:05:45;18.99;56.96
85532;SHT35;75970;52.122;5.406;2024-02-15T00:08:17;18.98;56.89
85532;SHT35;75970;52.122;5.406;2024-02-15T00:10:51;18.97;56.96
85532;SHT35;75970;52.122;5.406;2024-02-15T00:13:22;18.96;56.90
85532;SHT35;75970;52.122;5.406;2024-02-15T00:15:53;18.95;56.92
85532;SHT35;75970;52.122;5.406;2024-02-15T00:18:24;18.95;56.95
85532;SHT35;75970;52.122;5.406;2024-02-15T00:20:56;18.93;56.91
85532;SHT35;75970;52.122;5.406;2024-02-15T00:23:29;18.93;56.93
85532;SHT35;75970;52.122;5.406;2024-02-15T00:26:01;18.92;56.93
85532;SHT35;75970;52.122;5.406;2024-02-15T00:28:32;18.92;56.94
85532;SHT35;75970;52.122;5.406;2024-02-15T00:31:04;18.91;56.93
85532;SHT35;75970;52.122;5.406;2024-02-15T00:33:37;18.91;56.95
85532;SHT35;75970;52.122;5.406;2024-02-15T00:36:09;18.90;56.90
85532;SHT35;75970;52.122;5.406;2024-02-15T00:38:41;18.89;56.91
85532;SHT35;75970;52.122;5.406;2024-02-15T00:41:12;18.88;56.89
85532;SHT35;75970;52.122;5.406;2024-02-15T00:43:43;18.88;56.91
85532;SHT35;75970;52.122;5.406;2024-02-15T00:46:18;18.87;56.88
85532;SHT35;75970;52.122;5.406;2024-02-15T00:48:49;18.86;56.89
85532;SHT35;75970;52.122;5.406;2024-02-15T00:51:22;18.85;56.85
85532;SHT35;75970;52.122;5.406;2024-02-15T00:53:53;18.84;56.86
85532;SHT35;75970;52.122;5.406;2024-02-15T00:56:24;18.83;56.88
85532;SHT35;75970;52.122;5.406;2024-02-15T00:58:56;18.82;56.91
85532;SHT35;75970;52.122;5.406;2024-02-15T01:01:29;18.81;56.90
85532;SHT35;75970;52.122;5.406;2024-02-15T01:04:00;18.80;56.89
85532;SHT35;75970;52.122;5.406;2024-02-15T01:06:31;18.80;56.88
85532;SHT35;75970;52.122;5.406;2024-02-15T01:09:03;18.79;56.88
85532;SHT35;75970;52.122;5.406;2024-02-15T01:11:34;18.78;56.91
85532;SHT35;75970;52.122;5.406;2024-02-15T01:14:06;18.77;56.87
85532;SHT35;75970;52.122;5.406;2024-02-15T01:16:38;18.76;56.90
85532;SHT35;75970;52.122;5.406;2024-02-15T01:19:09;18.75;56.88
85532;SHT35;75970;52.122;5.406;2024-02-15T01:21:42;18.74;56.89
85532;SHT35;75970;52.122;5.406;2024-02-15T01:24:15;18.73;56.90
85532;SHT35;75970;52.122;5.406;2024-02-15T01:26:46;18.72;56.91
85532;SHT35;75970;52.122;5.406;2024-02-15T01:29:18;18.71;56.91
85532;SHT35;75970;52.122;5.406;2024-02-15T01:31:50;18.70;56.92
85532;SHT35;75970;52.122;5.406;2024-02-15T01:34:21;18.70;56.95
85532;SHT35;75970;52.122;5.406;2024-02-15T01:36:53;18.69;56.93
85532;SHT35;75970;52.122;5.406;2024-02-15T01:39:24;18.68;56.93
85532;SHT35;75970;52.122;5.406;2024-02-15T01:41:56;18.67;56.97
85532;SHT35;75970;52.122;5.406;2024-02-15T01:44:27;18.67;56.96
85532;SHT35;75970;52.122;5.406;2024-02-15T01:46:59;18.66;56.95
85532;SHT35;75970;52.122;5.406;2024-02-15T01:49:31;18.65;56.96
85532;SHT35;75970;52.122;5.406;2024-02-15T01:52:06;18.65;56.96
85532;SHT35;75970;52.122;5.406;2024-02-15T01:54:38;18.64;56.96
85532;SHT35;75970;52.122;5.406;2024-02-15T01:57:10;18.63;56.97
85532;SHT35;75970;52.122;5.406;2024-02-15T01:59:41;18.62;56.99
85532;SHT35;75970;52.122;5.406;2024-02-15T02:02:19;18.62;57.04
85532;SHT35;75970;52.122;5.406;2024-02-15T02:04:51;18.61;57.01
85532;SHT35;75970;52.122;5.406;2024-02-15T02:07:22;18.60;57.02
85532;SHT35;75970;52.122;5.406;2024-02-15T02:09:53;18.60;57.05
85532;SHT35;75970;52.122;5.406;2024-02-15T02:12:25;18.59;57.06
85532;SHT35;75970;52.122;5.406;2024-02-15T02:14:56;18.59;57.03
85532;SHT35;75970;52.122;5.406;2024-02-15T02:17:28;18.58;57.05
85532;SHT35;75970;52.122;5.406;2024-02-15T02:19:59;18.58;57.05
85532;SHT35;75970;52.122;5.406;2024-02-15T02:22:32;18.57;57.02
85532;SHT35;75970;52.122;5.406;2024-02-15T02:25:08;18.57;57.05
85532;SHT35;75970;52.122;5.406;2024-02-15T02:27:39;18.56;57.07
85532;SHT35;75970;52.122;5.406;2024-02-15T02:30:15;18.55;57.03
85532;SHT35;75970;52.122;5.406;2024-02-15T02:32:48;18.55;57.07
85532;SHT35;75970;52.122;5.406;2024-02-15T02:35:19;18.54;57.05
85532;SHT35;75970;52.122;5.406;2024-02-15T02:37:51;18.53;57.04
85532;SHT35;75970;52.122;5.406;2024-02-15T02:40:22;18.52;57.06
85532;SHT35;75970;52.122;5.406;2024-02-15T02:42:58;18.52;57.07
85532;SHT35;75970;52.122;5.406;2024-02-15T02:45:29;18.51;57.08
85532;SHT35;75970;52.122;5.406;2024-02-15T02:48:00;18.51;57.10
85532;SHT35;75970;52.122;5.406;2024-02-15T02:50:32;18.50;57.06
85532;SHT35;75970;52.122;5.406;2024-02-15T02:53:03;18.49;57.08
85532;SHT35;75970;52.122;5.406;2024-02-15T02:55:34;18.49;57.08
85532;SHT35;75970;52.122;5.406;2024-02-15T02:58:06;18.49;57.07
85532;SHT35;75970;52.122;5.406;2024-02-15T03:00:38;18.49;57.07
85532;SHT35;75970;52.122;5.406;2024-02-15T03:03:09;18.48;57.08
85532;SHT35;75970;52.122;5.406;2024-02-15T03:05:40;18.48;57.07
85532;SHT35;75970;52.122;5.406;2024-02-15T03:08:12;18.47;57.08
85532;SHT35;75970;52.122;5.406;2024-02-15T03:10:48;18.46;57.05
85532;SHT35;75970;52.122;5.406;2024-02-15T03:13:20;18.46;57.04
85532;SHT35;75970;52.122;5.406;2024-02-15T03:15:52;18.45;57.05
85532;SHT35;75970;52.122;5.406;2024-02-15T03:18:23;18.45;57.03
85532;SHT35;75970;52.122;5.406;2024-02-15T03:20:54;18.45;57.03
85532;SHT35;75970;52.122;5.406;2024-02-15T03:23:25;18.43;57.06
85532;SHT35;75970;52.122;5.406;2024-02-15T03:25:57;18.43;57.04
85532;SHT35;75970;52.122;5.406;2024-02-15T03:28:29;18.43;57.06
85532;SHT35;75970;52.122;5.406;2024-02-15T03:31:01;18.42;57.09
85532;SHT35;75970;52.122;5.406;2024-02-15T03:33:32;18.42;57.07
85532;SHT35;75970;52.122;5.406;2024-02-15T03:36:04;18.41;57.07
85532;SHT35;75970;52.122;5.406;2024-02-15T03:38:36;18.40;57.06
85532;SHT35;75970;52.122;5.406;2024-02-15T03:41:08;18.40;57.08
85532;SHT35;75970;52.122;5.406;2024-02-15T03:43:39;18.39;57.10
85532;SHT35;75970;52.122;5.406;2024-02-15T03:46:10;18.38;57.09
85532;SHT35;75970;52.122;5.406;2024-02-15T03:48:43;18.38;57.11
85532;SHT35;75970;52.122;5.406;2024-02-15T03:51:18;18.38;57.13
85532;SHT35;75970;52.122;5.406;2024-02-15T03:53:49;18.37;57.11
85532;SHT35;75970;52.122;5.406;2024-02-15T03:56:21;18.36;57.12
85532;SHT35;75970;52.122;5.406;2024-02-15T03:58:52;18.35;57.12
85532;SHT35;75970;52.122;5.406;2024-02-15T04:01:28;18.35;57.12
85532;SHT35;75970;52.122;5.406;2024-02-15T04:04:02;18.34;57.11
85532;SHT35;75970;52.122;5.406;2024-02-15T04:06:34;18.34;57.14
85532;SHT35;75970;52.122;5.406;2024-02-15T04:09:05;18.34;57.11
85532;SHT35;75970;52.122;5.406;2024-02-15T04:11:44;18.33;57.11
85532;SHT35;75970;52.122;5.406;2024-02-15T04:14:19;18.32;57.13
85532;SHT35;75970;52.122;5.406;2024-02-15T04:16:50;18.32;57.14
85532;SHT35;75970;52.122;5.406;2024-02-15T04:19:21;18.32;57.13
85532;SHT35;75970;52.122;5.406;2024-02-15T04:21:54;18.31;57.12
85532;SHT35;75970;52.122;5.406;2024-02-15T04:24:25;18.31;57.12
85532;SHT35;75970;52.122;5.406;2024-02-15T04:26:56;18.30;57.15
85532;SHT35;75970;52.122;5.406;2024-02-15T04:29:28;18.30;57.14
85532;SHT35;75970;52.122;5.406;2024-02-15T04:32:04;18.29;57.15
85532;SHT35;75970;52.122;5.406;2024-02-15T04:34:39;18.29;57.14
85532;SHT35;75970;52.122;5.406;2024-02-15T04:37:10;18.29;57.18
85532;SHT35;75970;52.122;5.406;2024-02-15T04:39:42;18.28;57.16
85532;SHT35;75970;52.122;5.406;2024-02-15T04:42:16;18.27;57.17
85532;SHT35;75970;52.122;5.406;2024-02-15T04:44:48;18.27;57.16
85532;SHT35;75970;52.122;5.406;2024-02-15T04:47:22;18.26;57.17
85532;SHT35;75970;52.122;5.406;2024-02-15T04:49:53;18.26;57.19
85532;SHT35;75970;52.122;5.406;2024-02-15T04:52:29;18.25;57.19
85532;SHT35;75970;52.122;5.406;2024-02-15T04:55:01;18.24;57.24
85532;SHT35;75970;52.122;5.406;2024-02-15T04:57:34;18.24;57.27
85532;SHT35;75970;52.122;5.406;2024-02-15T05:00:06;18.25;57.26
85532;SHT35;75970;52.122;5.406;2024-02-15T05:02:39;18.24;57.24
85532;SHT35;75970;52.122;5.406;2024-02-15T05:05:12;18.24;57.19
85532;SHT35;75970;52.122;5.406;2024-02-15T05:07:43;18.24;57.20
85532;SHT35;75970;52.122;5.406;2024-02-15T05:10:15;18.23;57.20
85532;SHT35;75970;52.122;5.406;2024-02-15T05:12:46;18.23;57.20
85532;SHT35;75970;52.122;5.406;2024-02-15T05:15:17;18.22;57.23
85532;SHT35;75970;52.122;5.406;2024-02-15T05:17:51;18.21;57.25
85532;SHT35;75970;52.122;5.406;2024-02-15T05:20:23;18.21;57.27
85532;SHT35;75970;52.122;5.406;2024-02-15T05:22:55;18.20;57.25
85532;SHT35;75970;52.122;5.406;2024-02-15T05:25:27;18.20;57.27
85532;SHT35;75970;52.122;5.406;2024-02-15T05:28:02;18.19;57.27
85532;SHT35;75970;52.122;5.406;2024-02-15T05:30:37;18.18;57.30
85532;SHT35;75970;52.122;5.406;2024-02-15T05:33:08;18.18;57.30
85532;SHT35;75970;52.122;5.406;2024-02-15T05:35:39;18.18;57.34
85532;SHT35;75970;52.122;5.406;2024-02-15T05:38:15;18.17;57.40
85532;SHT35;75970;52.122;5.406;2024-02-15T05:40:48;18.18;57.50
85532;SHT35;75970;52.122;5.406;2024-02-15T05:43:19;18.18;57.62
85532;SHT35;75970;52.122;5.406;2024-02-15T05:45:50;18.20;57.67
85532;SHT35;75970;52.122;5.406;2024-02-15T05:48:21;18.21;57.69
85532;SHT35;75970;52.122;5.406;2024-02-15T05:50:56;18.23;57.73
85532;SHT35;75970;52.122;5.406;2024-02-15T05:53:28;18.24;57.78
85532;SHT35;75970;52.122;5.406;2024-02-15T05:56:00;18.26;57.87
85532;SHT35;75970;52.122;5.406;2024-02-15T05:58:33;18.29;57.99
85532;SHT35;75970;52.122;5.406;2024-02-15T06:01:06;18.31;58.10
85532;SHT35;75970;52.122;5.406;2024-02-15T06:03:39;18.34;58.19
85532;SHT35;75970;52.122;5.406;2024-02-15T06:06:13;18.37;58.31
85532;SHT35;75970;52.122;5.406;2024-02-15T06:08:46;18.41;58.41
85532;SHT35;75970;52.122;5.406;2024-02-15T06:11:37;18.45;58.50
85532;SHT35;75970;52.122;5.406;2024-02-15T06:14:09;18.50;58.62
85532;SHT35;75970;52.122;5.406;2024-02-15T06:16:46;18.54;58.73
85532;SHT35;75970;52.122;5.406;2024-02-15T06:19:17;18.59;58.78
85532;SHT35;75970;52.122;5.406;2024-02-15T06:21:49;18.64;58.82
85532;SHT35;75970;52.122;5.406;2024-02-15T06:24:20;18.69;58.86
85532;SHT35;75970;52.122;5.406;2024-02-15T06:26:52;18.74;58.89
85532;SHT35;75970;52.122;5.406;2024-02-15T06:29:29;18.80;58.93
85532;SHT35;75970;52.122;5.406;2024-02-15T06:32:19;18.85;58.88
85532;SHT35;75970;52.122;5.406;2024-02-15T06:35:08;18.91;58.83
85532;SHT35;75970;52.122;5.406;2024-02-15T06:37:58;18.96;58.80
85532;SHT35;75970;52.122;5.406;2024-02-15T06:40:48;19.01;58.82
85532;SHT35;75970;52.122;5.406;2024-02-15T06:43:19;19.05;58.80
85532;SHT35;75970;52.122;5.406;2024-02-15T06:45:50;19.09;58.77
85532;SHT35;75970;52.122;5.406;2024-02-15T06:48:21;19.13;58.78
85532;SHT35;75970;52.122;5.406;2024-02-15T06:50:59;19.17;58.71
85532;SHT35;75970;52.122;5.406;2024-02-15T06:53:32;19.21;58.72
85532;SHT35;75970;52.122;5.406;2024-02-15T06:56:03;19.24;58.70
85532;SHT35;75970;52.122;5.406;2024-02-15T06:58:35;19.28;58.67
85532;SHT35;75970;52.122;5.406;2024-02-15T07:01:07;19.31;58.65
85532;SHT35;75970;52.122;5.406;2024-02-15T07:03:38;19.35;58.61
85532;SHT35;75970;52.122;5.406;2024-02-15T07:06:09;19.38;58.59
85532;SHT35;75970;52.122;5.406;2024-02-15T07:08:42;19.41;58.57
85532;SHT35;75970;52.122;5.406;2024-02-15T07:11:13;19.44;58.54
85532;SHT35;75970;52.122;5.406;2024-02-15T07:13:44;19.47;58.55
85532;SHT35;75970;52.122;5.406;2024-02-15T07:16:15;19.50;58.51
85532;SHT35;75970;52.122;5.406;2024-02-15T07:18:47;19.53;58.46
85532;SHT35;75970;52.122;5.406;2024-02-15T07:21:21;19.55;58.43
85532;SHT35;75970;52.122;5.406;2024-02-15T07:24:12;20.03;56.77
85532;SHT35;75970;52.122;5.406;2024-02-15T07:26:43;20.08;56.72
85532;SHT35;75970;52.122;5.406;2024-02-15T07:29:15;20.10;56.69
85532;SHT35;75970;52.122;5.406;2024-02-15T07:31:47;20.11;56.68
85532;SHT35;75970;52.122;5.406;2024-02-15T07:34:18;20.11;56.72
85532;SHT35;75970;52.122;5.406;2024-02-15T07:36:51;20.10;56.79
85532;SHT35;75970;52.122;5.406;2024-02-15T07:39:22;20.09;56.86
85532;SHT35;75970;52.122;5.406;2024-02-15T07:41:55;20.08;56.90
85532;SHT35;75970;52.122;5.406;2024-02-15T07:44:29;20.07;56.98
85532;SHT35;75970;52.122;5.406;2024-02-15T07:47:01;20.06;57.00
85532;SHT35;75970;52.122;5.406;2024-02-15T07:49:33;20.05;57.07
85532;SHT35;75970;52.122;5.406;2024-02-15T07:52:05;20.04;57.15
85532;SHT35;75970;52.122;5.406;2024-02-15T07:54:38;20.03;57.18
85532;SHT35;75970;52.122;5.406;2024-02-15T07:57:09;20.02;57.22
85532;SHT35;75970;52.122;5.406;2024-02-15T07:59:40;20.01;57.27
85532;SHT35;75970;52.122;5.406;2024-02-15T08:02:11;20.00;57.29
85532;SHT35;75970;52.122;5.406;2024-02-15T08:04:46;19.99;57.32
85532;SHT35;75970;52.122;5.406;2024-02-15T08:07:17;19.99;57.34
85532;SHT35;75970;52.122;5.406;2024-02-15T08:09:49;19.98;57.37
85532;SHT35;75970;52.122;5.406;2024-02-15T08:12:22;19.98;57.38
85532;SHT35;75970;52.122;5.406;2024-02-15T08:14:53;19.98;57.39
85532;SHT35;75970;52.122;5.406;2024-02-15T08:17:24;19.97;57.40
85532;SHT35;75970;52.122;5.406;2024-02-15T08:19:56;19.97;57.40
85532;SHT35;75970;52.122;5.406;2024-02-15T08:22:27;19.96;57.42
85532;SHT35;75970;52.122;5.406;2024-02-15T08:24:59;19.96;57.42
85532;SHT35;75970;52.122;5.406;2024-02-15T08:27:30;19.96;57.41
85532;SHT35;75970;52.122;5.406;2024-02-15T08:30:03;19.96;57.40
85532;SHT35;75970;52.122;5.406;2024-02-15T08:32:42;19.96;57.42
85532;SHT35;75970;52.122;5.406;2024-02-15T08:35:14;19.96;57.39
85532;SHT35;75970;52.122;5.406;2024-02-15T08:37:46;19.97;57.39
85532;SHT35;75970;52.122;5.406;2024-02-15T08:40:19;19.97;57.37
85532;SHT35;75970;52.122;5.406;2024-02-15T08:42:54;19.97;57.36
85532;SHT35;75970;52.122;5.406;2024-02-15T08:45:26;19.97;57.34
85532;SHT35;75970;52.122;5.406;2024-02-15T08:47:57;19.98;57.33
85532;SHT35;75970;52.122;5.406;2024-02-15T08:50:28;19.98;57.32
85532;SHT35;75970;52.122;5.406;2024-02-15T08:53:00;19.98;57.32
85532;SHT35;75970;52.122;5.406;2024-02-15T08:55:35;19.98;57.30
85532;SHT35;75970;52.122;5.406;2024-02-15T08:58:06;19.98;57.30
85532;SHT35;75970;52.122;5.406;2024-02-15T09:00:39;19.98;57.27
85532;SHT35;75970;52.122;5.406;2024-02-15T09:03:14;19.98;57.25
85532;SHT35;75970;52.122;5.406;2024-02-15T09:05:45;19.98;57.27
85532;SHT35;75970;52.122;5.406;2024-02-15T09:08:17;19.99;57.26
85532;SHT35;75970;52.122;5.406;2024-02-15T09:10:50;19.99;57.27
85532;SHT35;75970;52.122;5.406;2024-02-15T09:13:22;19.99;57.23
85532;SHT35;75970;52.122;5.406;2024-02-15T09:15:53;19.99;57.22
85532;SHT35;75970;52.122;5.406;2024-02-15T09:18:24;19.99;57.18
85532;SHT35;75970;52.122;5.406;2024-02-15T09:20:57;19.99;57.18
85532;SHT35;75970;52.122;5.406;2024-02-15T09:23:28;19.99;57.17
85532;SHT35;75970;52.122;5.406;2024-02-15T09:26:00;19.99;57.14
85532;SHT35;75970;52.122;5.406;2024-02-15T09:28:31;19.99;57.13
85532;SHT35;75970;52.122;5.406;2024-02-15T09:31:02;19.99;57.14
85532;SHT35;75970;52.122;5.406;2024-02-15T09:33:34;19.99;57.13
85532;SHT35;75970;52.122;5.406;2024-02-15T09:36:06;19.99;57.15
85532;SHT35;75970;52.122;5.406;2024-02-15T09:38:37;19.99;57.10
85532;SHT35;75970;52.122;5.406;2024-02-15T09:41:08;19.99;57.11
85532;SHT35;75970;52.122;5.406;2024-02-15T09:43:39;19.99;57.11
85532;SHT35;75970;52.122;5.406;2024-02-15T09:46:13;19.99;57.09
85532;SHT35;75970;52.122;5.406;2024-02-15T09:48:50;19.99;57.05
85532;SHT35;75970;52.122;5.406;2024-02-15T09:51:32;19.99;57.03
85532;SHT35;75970;52.122;5.406;2024-02-15T09:54:04;19.99;57.05
85532;SHT35;75970;52.122;5.406;2024-02-15T09:56:38;19.99;57.04
85532;SHT35;75970;52.122;5.406;2024-02-15T09:59:11;19.99;57.05
85532;SHT35;75970;52.122;5.406;2024-02-15T10:01:43;19.99;57.06
85532;SHT35;75970;52.122;5.406;2024-02-15T10:04:18;19.99;57.05
85532;SHT35;75970;52.122;5.406;2024-02-15T10:06:49;19.99;57.03
85532;SHT35;75970;52.122;5.406;2024-02-15T10:09:27;19.99;57.01
85532;SHT35;75970;52.122;5.406;2024-02-15T10:12:01;19.99;57.00
85532;SHT35;75970;52.122;5.406;2024-02-15T10:14:35;19.99;56.95
85532;SHT35;75970;52.122;5.406;2024-02-15T10:17:08;19.99;56.93
85532;SHT35;75970;52.122;5.406;2024-02-15T10:19:40;19.99;56.91
85532;SHT35;75970;52.122;5.406;2024-02-15T10:22:13;19.99;56.92
85532;SHT35;75970;52.122;5.406;2024-02-15T10:24:44;19.98;56.91
85532;SHT35;75970;52.122;5.406;2024-02-15T10:27:23;19.98;56.89
85532;SHT35;75970;52.122;5.406;2024-02-15T10:30:18;19.97;56.87
85532;SHT35;75970;52.122;5.406;2024-02-15T10:32:50;19.96;56.96
85532;SHT35;75970;52.122;5.406;2024-02-15T10:35:25;19.97;57.37
85532;SHT35;75970;52.122;5.406;2024-02-15T10:38:10;19.98;58.22
85532;SHT35;75970;52.122;5.406;2024-02-15T10:40:48;20.00;59.01
85532;SHT35;75970;52.122;5.406;2024-02-15T10:43:21;20.02;59.60
85532;SHT35;75970;52.122;5.406;2024-02-15T10:45:52;20.05;60.19
85532;SHT35;75970;52.122;5.406;2024-02-15T10:48:25;20.09;60.40
85532;SHT35;75970;52.122;5.406;2024-02-15T10:51:00;20.13;60.97
85532;SHT35;75970;52.122;5.406;2024-02-15T10:53:35;20.17;61.59
85532;SHT35;75970;52.122;5.406;2024-02-15T10:56:18;20.20;61.89
85532;SHT35;75970;52.122;5.406;2024-02-15T10:59:19;20.24;62.15
85532;SHT35;75970;52.122;5.406;2024-02-15T11:01:59;20.29;62.79
85532;SHT35;75970;52.122;5.406;2024-02-15T11:04:35;20.34;63.45
85532;SHT35;75970;52.122;5.406;2024-02-15T11:07:07;20.38;65.28
85532;SHT35;75970;52.122;5.406;2024-02-15T11:09:40;20.44;65.64
85532;SHT35;75970;52.122;5.406;2024-02-15T11:12:12;20.49;66.44
85532;SHT35;75970;52.122;5.406;2024-02-15T11:14:45;20.54;65.88
85532;SHT35;75970;52.122;5.406;2024-02-15T11:23:05;20.67;65.10
85532;SHT35;75970;52.122;5.406;2024-02-15T11:25:43;20.70;64.85
85532;SHT35;75970;52.122;5.406;2024-02-15T11:30:58;20.73;64.40
85532;SHT35;75970;52.122;5.406;2024-02-15T11:33:33;20.74;64.17
85532;SHT35;75970;52.122;5.406;2024-02-15T11:36:11;20.74;63.97
85532;SHT35;75970;52.122;5.406;2024-02-15T11:38:43;20.74;63.81
85532;SHT35;75970;52.122;5.406;2024-02-15T11:41:19;20.73;63.69
85532;SHT35;75970;52.122;5.406;2024-02-15T11:43:53;20.72;63.52
85532;SHT35;75970;52.122;5.406;2024-02-15T11:46:28;20.71;63.39
85532;SHT35;75970;52.122;5.406;2024-02-15T11:49:01;20.70;63.21
85532;SHT35;75970;52.122;5.406;2024-02-15T11:51:35;20.68;63.08
85532;SHT35;75970;52.122;5.406;2024-02-15T11:54:12;20.67;62.94
85532;SHT35;75970;52.122;5.406;2024-02-15T11:59:18;20.63;62.81
85532;SHT35;75970;52.122;5.406;2024-02-15T12:02:04;20.61;62.73
85532;SHT35;75970;52.122;5.406;2024-02-15T12:04:54;20.58;62.67
85532;SHT35;75970;52.122;5.406;2024-02-15T12:07:45;20.57;62.59
85532;SHT35;75970;52.122;5.406;2024-02-15T12:10:40;20.55;62.50
85532;SHT35;75970;52.122;5.406;2024-02-15T12:13:30;20.53;62.43
85532;SHT35;75970;52.122;5.406;2024-02-15T12:16:19;20.51;62.36
85532;SHT35;75970;52.122;5.406;2024-02-15T12:19:09;20.49;62.27
85532;SHT35;75970;52.122;5.406;2024-02-15T12:21:46;20.48;62.21
85532;SHT35;75970;52.122;5.406;2024-02-15T12:24:17;20.46;62.16
85532;SHT35;75970;52.122;5.406;2024-02-15T12:26:50;20.45;62.11
85532;SHT35;75970;52.122;5.406;2024-02-15T12:29:21;20.43;62.06
85532;SHT35;75970;52.122;5.406;2024-02-15T12:31:55;20.43;62.01
85532;SHT35;75970;52.122;5.406;2024-02-15T12:34:27;20.41;61.95
85532;SHT35;75970;52.122;5.406;2024-02-15T12:37:06;20.40;61.90
85532;SHT35;75970;52.122;5.406;2024-02-15T12:39:38;20.39;61.84
85532;SHT35;75970;52.122;5.406;2024-02-15T12:42:16;20.38;61.78
85532;SHT35;75970;52.122;5.406;2024-02-15T12:45:07;20.64;60.67
85532;SHT35;75970;52.122;5.406;2024-02-15T12:47:52;20.67;60.58
85532;SHT35;75970;52.122;5.406;2024-02-15T12:50:28;20.69;60.37
85532;SHT35;75970;52.122;5.406;2024-02-15T12:52:59;20.70;60.23
85532;SHT35;75970;52.122;5.406;2024-02-15T12:55:32;20.70;60.14
85532;SHT35;75970;52.122;5.406;2024-02-15T12:58:06;20.70;60.14
85532;SHT35;75970;52.122;5.406;2024-02-15T13:00:40;20.68;60.32
85532;SHT35;75970;52.122;5.406;2024-02-15T13:03:12;20.68;60.37
85532;SHT35;75970;52.122;5.406;2024-02-15T13:05:45;20.67;60.42
85532;SHT35;75970;52.122;5.406;2024-02-15T13:08:17;20.66;60.42
85532;SHT35;75970;52.122;5.406;2024-02-15T13:10:51;20.65;60.42
85532;SHT35;75970;52.122;5.406;2024-02-15T13:13:22;20.65;60.38
85532;SHT35;75970;52.122;5.406;2024-02-15T13:15:53;20.63;60.30
85532;SHT35;75970;52.122;5.406;2024-02-15T13:18:24;20.63;60.21
85532;SHT35;75970;52.122;5.406;2024-02-15T13:20:59;20.62;60.32
85532;SHT35;75970;52.122;5.406;2024-02-15T13:23:31;20.61;60.34
85532;SHT35;75970;52.122;5.406;2024-02-15T13:26:05;20.60;60.39
85532;SHT35;75970;52.122;5.406;2024-02-15T13:28:37;20.59;60.41
85532;SHT35;75970;52.122;5.406;2024-02-15T13:31:14;20.59;60.51
85532;SHT35;75970;52.122;5.406;2024-02-15T13:33:45;20.59;60.51
85532;SHT35;75970;52.122;5.406;2024-02-15T13:36:17;20.59;60.50
85532;SHT35;75970;52.122;5.406;2024-02-15T13:38:49;20.59;60.46
85532;SHT35;75970;52.122;5.406;2024-02-15T13:41:21;20.59;60.41
85532;SHT35;75970;52.122;5.406;2024-02-15T13:43:52;20.59;60.44
85532;SHT35;75970;52.122;5.406;2024-02-15T13:46:23;20.59;60.40
85532;SHT35;75970;52.122;5.406;2024-02-15T13:48:54;20.59;60.37
85532;SHT35;75970;52.122;5.406;2024-02-15T13:51:27;20.59;60.21
85532;SHT35;75970;52.122;5.406;2024-02-15T13:53:59;20.58;60.06
85532;SHT35;75970;52.122;5.406;2024-02-15T13:56:30;20.57;59.98
85532;SHT35;75970;52.122;5.406;2024-02-15T13:59:01;20.56;59.99
85532;SHT35;75970;52.122;5.406;2024-02-15T14:01:35;20.55;60.08
85532;SHT35;75970;52.122;5.406;2024-02-15T14:04:12;20.53;60.11
85532;SHT35;75970;52.122;5.406;2024-02-15T14:06:45;20.52;60.15
85532;SHT35;75970;52.122;5.406;2024-02-15T14:09:17;20.51;60.39
85532;SHT35;75970;52.122;5.406;2024-02-15T14:17:52;21.37;56.96
85532;SHT35;75970;52.122;5.406;2024-02-15T14:20:25;21.07;58.43
85532;SHT35;75970;52.122;5.406;2024-02-15T14:22:57;21.02;58.74
85532;SHT35;75970;52.122;5.406;2024-02-15T14:25:33;21.01;58.98
85532;SHT35;75970;52.122;5.406;2024-02-15T14:28:05;20.98;59.10
85532;SHT35;75970;52.122;5.406;2024-02-15T14:30:40;20.96;59.28
85532;SHT35;75970;52.122;5.406;2024-02-15T14:33:30;20.94;59.45
85532;SHT35;75970;52.122;5.406;2024-02-15T14:37:44;20.90;59.62
85532;SHT35;75970;52.122;5.406;2024-02-15T14:40:15;20.96;59.55
85532;SHT35;75970;52.122;5.406;2024-02-15T14:42:54;20.99;59.57
85532;SHT35;75970;52.122;5.406;2024-02-15T14:45:26;20.99;59.60
85532;SHT35;75970;52.122;5.406;2024-02-15T14:47:58;20.98;59.63
85532;SHT35;75970;52.122;5.406;2024-02-15T14:50:30;20.97;59.58
85532;SHT35;75970;52.122;5.406;2024-02-15T14:53:02;20.95;59.46
85532;SHT35;75970;52.122;5.406;2024-02-15T14:55:36;20.93;59.42
85532;SHT35;75970;52.122;5.406;2024-02-15T14:58:09;20.91;59.40
85532;SHT35;75970;52.122;5.406;2024-02-15T15:00:42;20.88;59.45
85532;SHT35;75970;52.122;5.406;2024-02-15T15:03:16;20.86;59.49
85532;SHT35;75970;52.122;5.406;2024-02-15T15:05:50;20.83;59.51
85532;SHT35;75970;52.122;5.406;2024-02-15T15:08:40;20.81;59.50
85532;SHT35;75970;52.122;5.406;2024-02-15T15:11:30;20.78;59.53
85532;SHT35;75970;52.122;5.406;2024-02-15T15:14:20;20.76;59.52
85532;SHT35;75970;52.122;5.406;2024-02-15T15:16:51;20.74;59.55
85532;SHT35;75970;52.122;5.406;2024-02-15T15:19:24;20.72;59.56
85532;SHT35;75970;52.122;5.406;2024-02-15T15:21:56;20.70;59.55
85532;SHT35;75970;52.122;5.406;2024-02-15T15:24:27;20.68;59.58
85532;SHT35;75970;52.122;5.406;2024-02-15T15:26:59;20.67;59.59
85532;SHT35;75970;52.122;5.406;2024-02-15T15:29:30;20.65;59.58
85532;SHT35;75970;52.122;5.406;2024-02-15T15:52:41;20.62;56.52
85532;SHT35;75970;52.122;5.406;2024-02-15T15:55:13;20.36;58.24
85532;SHT35;75970;52.122;5.406;2024-02-15T16:00:28;19.78;61.01
85532;SHT35;75970;52.122;5.406;2024-02-15T16:03:01;19.84;61.32
85532;SHT35;75970;52.122;5.406;2024-02-15T16:05:34;19.92;61.33
85532;SHT35;75970;52.122;5.406;2024-02-15T16:08:06;19.99;61.34
85532;SHT35;75970;52.122;5.406;2024-02-15T16:10:37;20.04;61.28
85532;SHT35;75970;52.122;5.406;2024-02-15T16:13:09;20.09;61.26
85532;SHT35;75970;52.122;5.406;2024-02-15T16:15:40;20.14;61.19
85532;SHT35;75970;52.122;5.406;2024-02-15T16:18:15;20.18;61.09
85532;SHT35;75970;52.122;5.406;2024-02-15T16:20:48;20.22;61.01
85532;SHT35;75970;52.122;5.406;2024-02-15T16:23:23;20.26;60.95
85532;SHT35;75970;52.122;5.406;2024-02-15T16:25:54;20.30;60.84
85532;SHT35;75970;52.122;5.406;2024-02-15T16:28:27;20.32;60.79
85532;SHT35;75970;52.122;5.406;2024-02-15T16:31:06;20.35;60.71
85532;SHT35;75970;52.122;5.406;2024-02-15T16:33:37;20.38;60.68
85532;SHT35;75970;52.122;5.406;2024-02-15T16:36:09;20.41;60.67
85532;SHT35;75970;52.122;5.406;2024-02-15T16:38:40;20.44;60.60
85532;SHT35;75970;52.122;5.406;2024-02-15T16:41:12;20.47;60.53
85532;SHT35;75970;52.122;5.406;2024-02-15T16:43:43;20.49;60.46
85532;SHT35;75970;52.122;5.406;2024-02-15T16:46:15;20.52;60.35
85532;SHT35;75970;52.122;5.406;2024-02-15T16:48:47;20.54;60.30
85532;SHT35;75970;52.122;5.406;2024-02-15T16:51:19;20.57;60.27